createdAt,value
2022-10-25T00:00:39.959Z,4.17
2022-10-25T00:03:11.755Z,5.53
2022-10-25T00:05:40.801Z,4.83
2022-10-25T00:08:07.901Z,2.57
2022-10-25T00:10:35.498Z,3.23
2022-10-25T00:13:02.886Z,6.03
2022-10-25T00:15:29.337Z,9.30
2022-10-25T00:17:55.825Z,4.57
2022-10-25T00:20:22.525Z,4.20
2022-10-25T00:22:49.398Z,6.27
2022-10-25T00:25:16.179Z,3.90
2022-10-25T00:27:42.787Z,6.23
2022-10-25T00:30:10.045Z,4.70
2022-10-25T00:32:36.874Z,4.03
2022-10-25T00:35:04.103Z,3.77
2022-10-25T00:37:30.668Z,4.87
2022-10-25T00:39:57.190Z,7.30
2022-10-25T00:42:26.415Z,4.00
2022-10-25T00:45:03.835Z,6.03
2022-10-25T00:47:40.013Z,4.47
2022-10-25T00:50:16.952Z,3.30
2022-10-25T00:52:47.185Z,6.07
2022-10-25T00:55:16.613Z,3.40
2022-10-25T00:57:49.965Z,4.57
2022-10-25T01:00:16.862Z,4.47
2022-10-25T01:02:43.788Z,8.37
2022-10-25T01:05:10.959Z,5.83
2022-10-25T01:07:37.467Z,7.53
2022-10-25T01:10:04.710Z,5.90
2022-10-25T01:12:31.178Z,6.70
2022-10-25T01:14:57.886Z,4.27
2022-10-25T01:17:53.928Z,5.47
2022-10-25T01:20:39.415Z,5.90
2022-10-25T01:23:32.381Z,7.13
2022-10-25T01:26:04.982Z,5.50
2022-10-25T01:28:51.669Z,6.83
2022-10-25T01:31:27.250Z,6.63
2022-10-25T01:34:05.587Z,6.50
2022-10-25T01:37:03.544Z,6.53
2022-10-25T01:39:38.218Z,6.40
2022-10-25T01:42:11.706Z,6.63
2022-10-25T01:44:59.649Z,5.57
2022-10-25T01:47:36.533Z,7.50
2022-10-25T01:50:07.476Z,10.17
2022-10-25T01:52:34.159Z,5.37
2022-10-25T01:55:02.003Z,7.00
2022-10-25T01:57:53.410Z,7.17
2022-10-25T02:00:23.206Z,6.03
2022-10-25T02:03:08.386Z,10.73
2022-10-25T02:06:15.576Z,9.73
2022-10-25T02:09:08.607Z,5.97
2022-10-25T02:11:36.566Z,10.10
2022-10-25T02:14:02.881Z,9.33
2022-10-25T02:16:38.676Z,5.53
2022-10-25T02:19:08.817Z,8.67
2022-10-25T02:21:37.569Z,8.73
2022-10-25T02:24:10.484Z,8.27
2022-10-25T02:26:38.840Z,9.40
2022-10-25T02:29:07.057Z,9.83
2022-10-25T02:31:36.378Z,9.57
2022-10-25T02:34:03.713Z,6.97
2022-10-25T02:36:30.283Z,12.70
2022-10-25T02:38:58.100Z,11.27
2022-10-25T02:41:24.561Z,8.70
2022-10-25T02:43:51.518Z,9.73
2022-10-25T02:46:20.627Z,9.30
2022-10-25T02:48:47.951Z,8.73
2022-10-25T02:51:15.377Z,11.77
2022-10-25T02:53:42.130Z,10.67
2022-10-25T02:56:14.205Z,11.03
2022-10-25T02:58:42.232Z,8.27
2022-10-25T03:01:09.993Z,12.70
2022-10-25T03:03:36.848Z,10.13
2022-10-25T03:06:04.348Z,9.30
2022-10-25T03:08:31.193Z,10.93
2022-10-25T03:10:57.643Z,10.87
2022-10-25T03:13:24.155Z,8.83
2022-10-25T03:15:50.816Z,11.83
2022-10-25T03:18:18.010Z,11.97
2022-10-25T03:20:45.009Z,12.57
2022-10-25T03:23:12.105Z,17.03
2022-10-25T03:25:39.125Z,11.50
2022-10-25T03:28:06.140Z,11.60
2022-10-25T03:30:33.403Z,14.27
2022-10-25T03:32:59.882Z,12.23
2022-10-25T03:35:27.122Z,12.70
2022-10-25T03:37:53.858Z,12.20
2022-10-25T03:40:21.159Z,15.00
2022-10-25T03:42:47.609Z,14.27
2022-10-25T03:45:14.070Z,19.07
2022-10-25T03:47:40.558Z,15.83
2022-10-25T03:50:08.178Z,15.80
2022-10-25T03:52:35.510Z,15.53
2022-10-25T03:55:02.378Z,13.30
2022-10-25T03:57:28.888Z,13.03
2022-10-25T03:59:55.609Z,13.00
2022-10-25T04:02:22.085Z,14.70
2022-10-25T04:04:48.534Z,13.70
2022-10-25T04:07:15.287Z,11.37
2022-10-25T04:09:42.002Z,14.57
2022-10-25T04:12:08.777Z,13.87
2022-10-25T04:14:35.498Z,14.67
2022-10-25T04:17:02.028Z,15.47
2022-10-25T04:19:28.611Z,13.60
2022-10-25T04:21:55.068Z,15.03
2022-10-25T04:24:22.699Z,13.27
2022-10-25T04:26:49.317Z,15.47
2022-10-25T04:29:17.326Z,17.47
2022-10-25T04:31:44.090Z,13.70
2022-10-25T04:34:11.157Z,14.53
2022-10-25T04:36:39.018Z,13.20
2022-10-25T04:39:05.929Z,15.90
2022-10-25T04:41:32.350Z,12.80
2022-10-25T04:43:58.866Z,15.77
2022-10-25T04:46:25.363Z,14.37
2022-10-25T04:48:51.978Z,18.03
2022-10-25T04:51:19.059Z,14.93
2022-10-25T04:53:45.630Z,13.03
2022-10-25T04:56:14.332Z,12.77
2022-10-25T04:58:41.351Z,14.33
2022-10-25T05:01:11.071Z,13.60
2022-10-25T05:03:38.185Z,11.83
2022-10-25T05:06:12.880Z,14.80
2022-10-25T05:08:41.653Z,12.00
2022-10-25T05:11:09.845Z,13.83
2022-10-25T05:13:37.765Z,11.20
2022-10-25T05:16:04.759Z,11.17
2022-10-25T05:18:32.513Z,11.93
2022-10-25T05:21:01.530Z,14.00
2022-10-25T05:23:28.553Z,11.23
2022-10-25T05:26:12.606Z,11.70
2022-10-25T05:28:40.481Z,10.93
2022-10-25T05:31:13.599Z,10.00
2022-10-25T05:33:40.298Z,12.63
2022-10-25T05:36:07.256Z,13.87
2022-10-25T05:38:36.946Z,13.70
2022-10-25T05:41:05.135Z,14.63
2022-10-25T05:43:31.760Z,10.30
2022-10-25T05:46:11.600Z,13.17
2022-10-25T05:48:38.665Z,11.07
2022-10-25T05:51:32.915Z,11.33
2022-10-25T05:54:02.647Z,10.67
2022-10-25T05:56:30.931Z,14.63
2022-10-25T05:58:57.412Z,14.50
2022-10-25T06:01:26.574Z,11.13
2022-10-25T06:03:54.891Z,12.87
2022-10-25T06:06:22.735Z,13.27
2022-10-25T06:08:49.638Z,16.37
2022-10-25T06:11:19.497Z,11.43
2022-10-25T06:13:46.759Z,14.57
2022-10-25T06:16:15.663Z,18.50
2022-10-25T06:18:43.011Z,18.67
2022-10-25T06:21:21.313Z,16.97
2022-10-25T06:23:48.689Z,15.27
2022-10-25T06:26:18.157Z,11.77
2022-10-25T06:28:44.635Z,16.17
2022-10-25T06:31:13.898Z,11.67
2022-10-25T06:33:41.279Z,14.20
2022-10-25T06:36:14.749Z,15.67
2022-10-25T06:38:41.737Z,14.23
2022-10-25T06:41:12.380Z,11.80
2022-10-25T06:43:39.301Z,13.47
2022-10-25T06:46:07.802Z,16.00
2022-10-25T06:48:34.656Z,15.80
2022-10-25T06:51:06.128Z,11.97
2022-10-25T06:53:32.934Z,11.80
2022-10-25T06:56:04.986Z,12.00
2022-10-25T06:58:34.120Z,11.30
2022-10-25T07:01:10.362Z,18.80
2022-10-25T07:03:37.795Z,11.30
2022-10-25T07:06:09.964Z,13.70
2022-10-25T07:08:39.286Z,16.83
2022-10-25T07:11:06.893Z,15.37
2022-10-25T07:13:34.463Z,10.73
2022-10-25T07:16:05.918Z,18.10
2022-10-25T07:18:33.990Z,11.67
2022-10-25T07:21:02.686Z,13.30
2022-10-25T07:23:29.726Z,15.47
2022-10-25T07:25:57.042Z,13.53
2022-10-25T07:28:24.131Z,14.07
2022-10-25T07:30:51.507Z,12.87
2022-10-25T07:33:19.833Z,16.80
2022-10-25T07:35:59.024Z,16.63
2022-10-25T07:38:35.149Z,16.60
2022-10-25T07:41:01.750Z,13.57
2022-10-25T07:43:29.248Z,12.70
2022-10-25T07:45:56.166Z,12.07
2022-10-25T07:48:23.230Z,12.63
2022-10-25T07:50:50.736Z,13.73
2022-10-25T07:53:17.200Z,8.47
2022-10-25T07:55:44.090Z,11.77
2022-10-25T07:58:12.227Z,14.73
2022-10-25T08:00:38.686Z,11.77
2022-10-25T08:03:05.384Z,14.27
2022-10-25T08:05:32.108Z,13.77
2022-10-25T08:07:58.533Z,10.47
2022-10-25T08:10:25.054Z,10.90
2022-10-25T08:12:51.860Z,11.70
2022-10-25T08:15:18.418Z,11.07
2022-10-25T08:17:45.143Z,10.17
2022-10-25T08:20:12.432Z,12.10
2022-10-25T08:22:39.027Z,13.73
2022-10-25T08:25:06.355Z,16.17
2022-10-25T08:27:32.856Z,12.20
2022-10-25T08:29:59.439Z,13.33
2022-10-25T08:32:25.953Z,11.23
2022-10-25T08:34:52.441Z,10.20
2022-10-25T08:37:18.864Z,10.77
2022-10-25T08:39:45.472Z,11.57
2022-10-25T08:42:23.411Z,10.83
2022-10-25T08:45:10.428Z,11.57
2022-10-25T08:47:43.892Z,12.53
2022-10-25T08:50:24.279Z,8.97
2022-10-25T08:52:59.093Z,7.73
2022-10-25T08:55:32.586Z,12.10
2022-10-25T08:58:00.279Z,10.63
2022-10-25T09:00:32.314Z,12.93
2022-10-25T09:03:00.437Z,12.60
2022-10-25T09:05:32.783Z,12.23
2022-10-25T09:08:35.463Z,12.33
2022-10-25T09:11:33.299Z,10.50
2022-10-25T09:14:21.018Z,11.37
2022-10-25T09:16:52.999Z,10.80
2022-10-25T09:19:44.336Z,9.03
2022-10-25T09:22:50.019Z,9.23
2022-10-25T09:25:34.220Z,8.47
2022-10-25T09:28:03.727Z,10.80
2022-10-25T09:30:37.500Z,11.90
2022-10-25T09:33:10.504Z,11.47
2022-10-25T09:35:48.715Z,12.43
2022-10-25T09:38:18.167Z,11.87
2022-10-25T09:40:49.193Z,8.60
2022-10-25T09:43:23.069Z,11.80
2022-10-25T09:45:54.886Z,9.33
2022-10-25T09:48:33.049Z,12.27
2022-10-25T09:51:13.056Z,10.90
2022-10-25T09:53:42.215Z,11.93
2022-10-25T09:56:09.177Z,10.70
2022-10-25T09:58:40.736Z,9.53
2022-10-25T10:01:13.424Z,9.93
2022-10-25T10:03:41.486Z,7.40
2022-10-25T10:06:23.905Z,11.43
2022-10-25T10:08:54.519Z,10.33
2022-10-25T10:11:21.265Z,7.60
2022-10-25T10:13:55.162Z,8.87
2022-10-25T10:16:21.815Z,9.07
2022-10-25T10:18:48.667Z,9.87
2022-10-25T10:21:20.615Z,8.93
2022-10-25T10:23:54.223Z,9.03
2022-10-25T10:26:30.319Z,8.83
2022-10-25T10:29:20.989Z,6.07
2022-10-25T10:31:56.480Z,9.30
2022-10-25T10:34:38.468Z,8.37
2022-10-25T10:37:16.779Z,8.00
2022-10-25T10:39:58.589Z,7.73
2022-10-25T10:42:37.386Z,6.93
2022-10-25T10:45:13.236Z,8.60
2022-10-25T10:47:56.943Z,5.57
2022-10-25T10:50:28.725Z,13.13
2022-10-25T10:53:00.597Z,8.70
2022-10-25T10:55:30.552Z,9.80
2022-10-25T10:58:02.621Z,10.60
2022-10-25T11:00:31.278Z,8.40
2022-10-25T11:02:58.279Z,6.87
2022-10-25T11:05:27.778Z,9.13
2022-10-25T11:08:00.799Z,10.57
2022-10-25T11:10:33.807Z,9.10
2022-10-25T11:13:16.915Z,9.47
2022-10-25T11:16:28.570Z,10.77
2022-10-25T11:19:04.314Z,7.43
2022-10-25T11:21:43.007Z,11.10
2022-10-25T11:24:52.931Z,12.77
2022-10-25T11:27:45.288Z,14.17
2022-10-25T11:30:22.910Z,7.23
2022-10-25T11:33:07.423Z,10.93
2022-10-25T11:35:43.316Z,12.47
2022-10-25T11:38:13.005Z,9.57
2022-10-25T11:40:46.631Z,10.83
2022-10-25T11:43:45.371Z,5.60
2022-10-25T11:46:20.691Z,9.60
2022-10-25T11:49:02.696Z,9.47
2022-10-25T11:51:51.377Z,11.87
2022-10-25T11:54:32.202Z,21.50
2022-10-25T11:57:17.103Z,7.10
2022-10-25T12:00:10.969Z,8.87
2022-10-25T12:03:17.358Z,8.47
2022-10-25T12:06:06.080Z,5.67
2022-10-25T12:08:41.768Z,6.80
2022-10-25T12:11:17.968Z,6.30
2022-10-25T12:13:49.963Z,8.37
2022-10-25T12:16:19.791Z,5.23
2022-10-25T12:19:06.371Z,4.43
2022-10-25T12:21:47.821Z,4.87
2022-10-25T12:24:20.622Z,4.93
2022-10-25T12:26:50.054Z,7.63
2022-10-25T12:29:24.186Z,7.70
2022-10-25T12:31:56.794Z,6.20
2022-10-25T12:34:40.439Z,10.90
2022-10-25T12:37:18.764Z,5.27
2022-10-25T12:39:46.711Z,8.23
2022-10-25T12:42:23.530Z,7.50
2022-10-25T12:45:02.100Z,7.73
2022-10-25T12:47:34.429Z,4.83
2022-10-25T12:50:26.343Z,4.77
2022-10-25T12:53:04.711Z,6.27
2022-10-25T12:55:57.868Z,6.17
2022-10-25T12:58:42.761Z,5.17
2022-10-25T13:01:34.179Z,5.63
2022-10-25T13:04:34.729Z,6.63
2022-10-25T13:07:04.368Z,8.17
2022-10-25T13:09:33.867Z,7.57
2022-10-25T13:12:04.691Z,6.43
2022-10-25T13:14:43.224Z,6.33
2022-10-25T13:17:15.901Z,5.70
2022-10-25T13:19:54.505Z,5.90
2022-10-25T13:22:39.374Z,4.97
2022-10-25T13:25:12.187Z,4.73
2022-10-25T13:27:59.628Z,4.27
2022-10-25T13:30:32.368Z,4.53
2022-10-25T13:33:18.771Z,4.07
2022-10-25T13:35:46.093Z,5.10
2022-10-25T13:38:20.620Z,5.40
2022-10-25T13:41:06.577Z,9.17
2022-10-25T13:43:33.915Z,5.20
2022-10-25T13:46:00.765Z,8.00
2022-10-25T13:48:31.652Z,5.30
2022-10-25T13:51:13.141Z,5.90
2022-10-25T13:53:41.173Z,8.27
2022-10-25T13:56:17.169Z,5.13
2022-10-25T13:58:48.330Z,5.90
2022-10-25T14:01:18.888Z,3.93
2022-10-25T14:03:56.288Z,6.07
2022-10-25T14:06:31.768Z,7.40
2022-10-25T14:09:23.286Z,6.67
2022-10-25T14:12:11.935Z,6.43
2022-10-25T14:15:13.648Z,6.57
2022-10-25T14:17:45.178Z,6.33
2022-10-25T14:20:30.437Z,5.10
2022-10-25T14:23:03.892Z,5.23
2022-10-25T14:25:39.695Z,6.97
2022-10-25T14:28:07.942Z,4.53
2022-10-25T14:30:43.030Z,5.70
2022-10-25T14:33:28.410Z,5.53
2022-10-25T14:36:05.480Z,6.07
2022-10-25T14:38:35.179Z,6.13
2022-10-25T14:41:10.853Z,5.87
2022-10-25T14:43:38.758Z,4.60
2022-10-25T14:46:17.091Z,8.53
2022-10-25T14:48:49.166Z,3.53
2022-10-25T14:51:21.594Z,7.10
2022-10-25T14:53:56.201Z,4.37
2022-10-25T14:56:31.631Z,6.77
2022-10-25T14:58:59.675Z,5.17
2022-10-25T15:01:26.593Z,7.63
2022-10-25T15:03:56.640Z,9.53
2022-10-25T15:06:25.667Z,4.17
2022-10-25T15:09:14.878Z,6.67
2022-10-25T15:12:06.721Z,6.23
2022-10-25T15:14:33.960Z,6.50
2022-10-25T15:17:29.663Z,5.13
2022-10-25T15:20:14.464Z,5.83
2022-10-25T15:22:44.669Z,7.00
2022-10-25T15:25:39.157Z,6.70
2022-10-25T15:28:14.523Z,7.63
2022-10-25T15:30:50.268Z,7.67
2022-10-25T15:33:23.206Z,3.23
2022-10-25T15:35:52.323Z,3.77
2022-10-25T15:38:19.375Z,4.97
2022-10-25T15:40:47.140Z,9.50
2022-10-25T15:43:13.884Z,5.27
2022-10-25T15:45:41.082Z,4.00
2022-10-25T15:48:14.219Z,6.00
2022-10-25T15:50:47.201Z,7.27
2022-10-25T15:53:13.755Z,8.10
2022-10-25T15:55:40.551Z,9.07
2022-10-25T15:58:09.788Z,7.10
2022-10-25T16:00:38.805Z,6.30
2022-10-25T16:03:06.698Z,12.33
2022-10-25T16:05:35.971Z,8.50
2022-10-25T16:08:03.130Z,7.10
2022-10-25T16:10:30.579Z,8.93
2022-10-25T16:13:05.884Z,5.93
2022-10-25T16:15:32.731Z,7.40
2022-10-25T16:17:59.174Z,8.93
2022-10-25T16:20:28.337Z,11.20
2022-10-25T16:22:55.837Z,8.53
2022-10-25T16:25:25.913Z,9.30
2022-10-25T16:27:54.499Z,13.07
2022-10-25T16:30:23.436Z,15.00
2022-10-25T16:32:50.999Z,16.93
2022-10-25T16:35:24.202Z,14.20
2022-10-25T16:37:51.732Z,10.77
2022-10-25T16:40:19.729Z,8.97
2022-10-25T16:42:46.759Z,11.13
2022-10-25T16:45:18.966Z,10.03
2022-10-25T16:47:45.629Z,6.77
2022-10-25T16:50:12.166Z,11.03
2022-10-25T16:52:38.600Z,11.73
2022-10-25T16:55:05.583Z,12.90
2022-10-25T16:57:32.071Z,8.67
2022-10-25T16:59:58.558Z,8.57
2022-10-25T17:02:25.562Z,5.97
2022-10-25T17:04:53.591Z,5.37
2022-10-25T17:07:20.121Z,9.00
2022-10-25T17:09:46.606Z,7.63
2022-10-25T17:12:13.148Z,8.57
2022-10-25T17:14:39.723Z,12.90
2022-10-25T17:17:06.213Z,12.10
2022-10-25T17:19:32.760Z,8.60
2022-10-25T17:21:59.247Z,13.67
2022-10-25T17:24:25.734Z,11.90
2022-10-25T17:26:52.445Z,10.50
2022-10-25T17:29:19.029Z,9.47
2022-10-25T17:31:45.541Z,8.77
2022-10-25T17:34:12.626Z,5.60
2022-10-25T17:36:39.285Z,8.40
2022-10-25T17:39:10.253Z,8.50
2022-10-25T17:41:37.206Z,5.67
2022-10-25T17:44:03.927Z,6.53
2022-10-25T17:46:31.815Z,8.20
2022-10-25T17:49:03.545Z,8.03
2022-10-25T17:51:31.610Z,10.30
2022-10-25T17:53:58.189Z,7.47
2022-10-25T17:56:26.953Z,5.77
2022-10-25T17:58:54.565Z,6.83
2022-10-25T18:01:23.955Z,8.30
2022-10-25T18:03:51.370Z,7.50
2022-10-25T18:06:20.095Z,10.27
2022-10-25T18:08:51.371Z,9.60
2022-10-25T18:11:22.072Z,8.30
2022-10-25T18:13:50.497Z,8.23
2022-10-25T18:16:17.914Z,10.37
2022-10-25T18:18:44.588Z,8.50
2022-10-25T18:21:14.113Z,8.93
2022-10-25T18:23:42.126Z,7.53
2022-10-25T18:26:11.259Z,9.17
2022-10-25T18:28:38.130Z,10.63
2022-10-25T18:31:10.068Z,8.67
2022-10-25T18:33:38.541Z,12.00
2022-10-25T18:36:09.884Z,7.23
2022-10-25T18:38:36.498Z,12.87
2022-10-25T18:41:07.959Z,9.00
2022-10-25T18:43:35.008Z,10.13
2022-10-25T18:46:02.153Z,11.77
2022-10-25T18:48:29.280Z,13.03
2022-10-25T18:50:55.811Z,13.67
2022-10-25T18:53:22.691Z,11.40
2022-10-25T18:55:53.028Z,9.30
2022-10-25T18:58:19.644Z,9.93
2022-10-25T19:00:47.235Z,11.47
2022-10-25T19:03:15.726Z,11.53
2022-10-25T19:05:43.245Z,12.77
2022-10-25T19:08:11.676Z,9.87
2022-10-25T19:10:39.931Z,12.80
2022-10-25T19:13:07.966Z,11.77
2022-10-25T19:15:34.561Z,15.87
2022-10-25T19:18:01.113Z,17.20
2022-10-25T19:20:27.641Z,12.27
2022-10-25T19:22:58.338Z,15.53
2022-10-25T19:25:28.619Z,16.17
2022-10-25T19:27:55.694Z,14.00
2022-10-25T19:30:22.773Z,13.13
2022-10-25T19:32:49.293Z,14.50
2022-10-25T19:35:16.447Z,17.70
2022-10-25T19:37:43.387Z,14.43
2022-10-25T19:40:10.750Z,13.37
2022-10-25T19:42:37.773Z,19.80
2022-10-25T19:45:05.451Z,17.43
2022-10-25T19:47:34.140Z,18.57
2022-10-25T19:50:02.640Z,20.97
2022-10-25T19:52:29.135Z,24.93
2022-10-25T19:54:55.582Z,23.23
2022-10-25T19:57:22.011Z,21.43
2022-10-25T19:59:48.527Z,20.07
2022-10-25T20:02:15.181Z,18.60
2022-10-25T20:04:42.179Z,17.17
2022-10-25T20:07:08.649Z,17.10
2022-10-25T20:09:35.096Z,16.77
2022-10-25T20:12:02.553Z,18.87
2022-10-25T20:14:30.762Z,16.30
2022-10-25T20:16:57.251Z,17.87
2022-10-25T20:19:23.690Z,15.63
2022-10-25T20:21:50.375Z,17.67
2022-10-25T20:24:16.869Z,18.90
2022-10-25T20:26:44.800Z,17.90
2022-10-25T20:29:20.323Z,15.97
2022-10-25T20:31:48.680Z,18.23
2022-10-25T20:34:15.995Z,16.20
2022-10-25T20:36:42.550Z,13.27
2022-10-25T20:39:10.919Z,16.23
2022-10-25T20:41:37.472Z,16.33
2022-10-25T20:44:05.234Z,13.53
2022-10-25T20:46:33.192Z,16.63
2022-10-25T20:49:00.567Z,16.13
2022-10-25T20:51:27.971Z,14.90
2022-10-25T20:53:54.558Z,15.10
2022-10-25T20:56:22.153Z,12.63
2022-10-25T20:58:49.389Z,14.20
2022-10-25T21:01:16.010Z,13.57
2022-10-25T21:03:42.754Z,14.80
2022-10-25T21:06:14.199Z,12.53
2022-10-25T21:08:41.004Z,13.53
2022-10-25T21:11:09.999Z,18.00
2022-10-25T21:13:37.339Z,15.73
2022-10-25T21:16:07.875Z,17.00
2022-10-25T21:18:35.998Z,16.63
2022-10-25T21:21:04.892Z,16.30
2022-10-25T21:23:32.119Z,15.47
2022-10-25T21:26:04.156Z,17.70
2022-10-25T21:28:35.891Z,17.37
2022-10-25T21:31:13.793Z,17.83
2022-10-25T21:33:49.487Z,19.40
2022-10-25T21:36:19.267Z,15.97
2022-10-25T21:38:45.804Z,16.10
2022-10-25T21:41:23.299Z,15.03
2022-10-25T21:43:51.198Z,18.17
2022-10-25T21:46:19.441Z,21.17
2022-10-25T21:48:47.965Z,16.13
2022-10-25T21:51:15.060Z,14.03
2022-10-25T21:53:41.661Z,13.73
2022-10-25T21:56:13.653Z,14.50
2022-10-25T21:58:42.606Z,13.17
2022-10-25T22:01:12.572Z,17.63
2022-10-25T22:03:39.738Z,14.30
2022-10-25T22:06:07.881Z,15.67
2022-10-25T22:08:34.508Z,15.40
2022-10-25T22:11:04.787Z,17.33
2022-10-25T22:13:31.351Z,16.30
2022-10-25T22:16:04.578Z,14.43
2022-10-25T22:18:31.577Z,14.47
2022-10-25T22:21:00.968Z,15.40
2022-10-25T22:23:30.413Z,14.63
2022-10-25T22:26:07.357Z,19.47
2022-10-25T22:28:36.828Z,14.37
2022-10-25T22:31:17.428Z,13.33
2022-10-25T22:33:44.967Z,17.83
2022-10-25T22:36:15.187Z,12.53
2022-10-25T22:38:42.545Z,15.03
2022-10-25T22:41:20.069Z,14.00
2022-10-25T22:43:47.944Z,14.87
2022-10-25T22:46:24.902Z,15.00
2022-10-25T22:48:53.755Z,13.53
2022-10-25T22:51:20.766Z,13.40
2022-10-25T22:53:47.629Z,13.37
2022-10-25T22:56:16.942Z,14.80
2022-10-25T22:58:49.221Z,13.07
2022-10-25T23:01:18.945Z,12.37
2022-10-25T23:03:52.259Z,12.13
2022-10-25T23:06:21.870Z,13.77
2022-10-25T23:08:48.633Z,17.13
2022-10-25T23:11:18.856Z,12.33
2022-10-25T23:13:46.287Z,12.97
2022-10-25T23:16:15.284Z,14.37
2022-10-25T23:18:42.511Z,13.07
2022-10-25T23:21:16.056Z,12.33
2022-10-25T23:23:43.136Z,14.40
2022-10-25T23:26:15.792Z,14.73
2022-10-25T23:28:42.471Z,15.40
2022-10-25T23:31:11.189Z,14.87
2022-10-25T23:33:38.342Z,14.30
2022-10-25T23:36:10.577Z,14.30
2022-10-25T23:38:37.621Z,13.57
2022-10-25T23:41:04.964Z,13.60
2022-10-25T23:43:31.687Z,12.63
2022-10-25T23:45:58.310Z,12.87
2022-10-25T23:48:25.099Z,11.03
2022-10-25T23:51:05.733Z,12.40
2022-10-25T23:53:32.218Z,12.27
2022-10-25T23:56:00.057Z,10.33
2022-10-25T23:58:28.713Z,11.60
